Time;durP1;ratioP1;P1;durP2;ratioP2;P2;SDS_P1;SDS_P2;PMS_P1;PMS_P2;Temp;Humidity;BMP_temperature;BMP_pressure;BME280_temperature;BME280_humidity;BME280_pressure;Samples;Min_cycle;Max_cycle;Signal;HPM_P1;HPM_P2
2022/08/28 00:02:15;;;;;;;18.48;2.53;;;23.30;78.30;;;;;;5070588;28;20399;-84
2022/08/28 00:04:41;;;;;;;5.70;2.47;;;23.30;78.30;;;;;;5069497;28;20077;-85
2022/08/28 00:07:07;;;;;;;7.13;2.83;;;23.30;78.90;;;;;;5070450;28;20507;-85
2022/08/28 00:09:33;;;;;;;7.90;3.28;;;23.30;79.00;;;;;;5068258;28;20029;-85
2022/08/28 00:11:58;;;;;;;14.77;2.70;;;23.20;78.60;;;;;;5069680;28;20465;-85
2022/08/28 00:14:25;;;;;;;13.25;3.05;;;23.20;78.20;;;;;;5069289;28;20036;-83
2022/08/28 00:16:51;;;;;;;11.25;2.53;;;23.20;78.30;;;;;;5068946;28;20508;-84
2022/08/28 00:19:18;;;;;;;7.25;3.17;;;23.30;78.20;;;;;;5064684;28;20064;-82
2022/08/28 00:21:45;;;;;;;10.35;2.67;;;23.20;78.10;;;;;;5068929;28;20074;-85
2022/08/28 00:24:11;;;;;;;7.07;2.85;;;23.20;78.00;;;;;;5070498;28;20032;-85
2022/08/28 00:29:21;;;;;;;12.55;3.40;;;23.20;78.00;;;;;;5072266;28;20074;-86
2022/08/28 00:31:47;;;;;;;12.43;2.80;;;23.30;77.90;;;;;;5069955;28;20062;-84
2022/08/28 00:34:13;;;;;;;8.90;2.55;;;23.30;78.20;;;;;;5068692;28;20056;-85
2022/08/28 00:36:40;;;;;;;9.13;2.58;;;23.30;78.30;;;;;;5069457;28;20571;-82
2022/08/28 00:39:07;;;;;;;7.47;3.25;;;23.30;78.60;;;;;;5071136;28;20043;-83
2022/08/28 00:41:34;;;;;;;7.85;2.58;;;23.20;79.10;;;;;;5063784;28;20404;-82
2022/08/28 00:44:13;;;;;;;9.30;2.75;;;23.20;78.60;;;;;;5067835;28;20040;-83
2022/08/28 00:46:41;;;;;;;9.88;2.33;;;23.20;78.70;;;;;;5071486;28;20051;-83
2022/08/28 00:49:07;;;;;;;6.25;2.60;;;23.20;79.50;;;;;;5067970;28;20062;-82
2022/08/28 00:54:20;;;;;;;9.63;2.17;;;23.20;80.40;;;;;;5060100;28;20072;-83
2022/08/28 00:56:46;;;;;;;5.80;1.98;;;23.10;80.30;;;;;;5066955;28;20024;-81
2022/08/28 00:59:17;;;;;;;5.28;2.42;;;23.10;80.10;;;;;;5067424;28;20052;-82
2022/08/28 01:01:44;;;;;;;6.90;2.25;;;23.00;79.80;;;;;;5066638;28;20031;-83
2022/08/28 01:04:17;;;;;;;9.18;2.20;;;23.10;79.70;;;;;;5067500;28;20349;-83
2022/08/28 01:06:45;;;;;;;6.70;2.13;;;23.00;79.30;;;;;;5067515;28;20334;-83
2022/08/28 01:09:11;;;;;;;6.57;2.30;;;23.00;79.70;;;;;;5066434;28;20025;-82
2022/08/28 01:11:40;;;;;;;8.68;2.67;;;22.90;80.10;;;;;;5066448;28;20020;-82
2022/08/28 01:14:07;;;;;;;12.30;2.88;;;23.00;80.40;;;;;;5066707;28;20023;-82
2022/08/28 01:16:35;;;;;;;10.77;2.92;;;23.10;79.90;;;;;;5066326;28;20028;-82
2022/08/28 01:19:04;;;;;;;12.50;2.95;;;23.20;79.50;;;;;;5066712;28;20231;-81
2022/08/28 01:21:38;;;;;;;10.70;3.72;;;23.30;79.60;;;;;;5065988;28;20024;-81
2022/08/28 01:24:13;;;;;;;13.77;3.72;;;23.40;80.00;;;;;;5066075;28;20393;-82
2022/08/28 01:26:39;;;;;;;11.40;3.15;;;23.50;79.50;;;;;;5065989;28;20515;-83
2022/08/28 01:29:07;;;;;;;3.65;2.33;;;23.60;78.60;;;;;;5065677;28;20405;-82
2022/08/28 01:31:34;;;;;;;10.57;3.10;;;23.60;78.70;;;;;;5066112;28;20029;-82
2022/08/28 01:34:01;;;;;;;7.93;2.60;;;23.60;78.80;;;;;;5065006;28;20059;-81
2022/08/28 01:36:28;;;;;;;10.15;2.70;;;23.60;78.70;;;;;;5065887;28;20036;-82
2022/08/28 01:38:59;;;;;;;6.93;2.65;;;23.60;79.50;;;;;;5065619;28;20040;-82
2022/08/28 01:41:25;;;;;;;8.50;2.70;;;23.60;80.30;;;;;;5067210;28;20027;-83
2022/08/28 01:43:52;;;;;;;7.45;2.70;;;23.40;80.60;;;;;;5068432;28;20036;-83
2022/08/28 01:46:18;;;;;;;6.68;2.42;;;23.20;81.20;;;;;;5065813;28;20115;-82
2022/08/28 01:48:44;;;;;;;9.77;2.83;;;23.10;81.60;;;;;;5066666;28;20033;-82
2022/08/28 01:51:11;;;;;;;6.95;2.67;;;23.10;81.80;;;;;;5065356;28;20028;-81
2022/08/28 01:53:40;;;;;;;7.05;2.75;;;23.10;82.20;;;;;;5069576;28;20186;-82
2022/08/28 01:56:10;;;;;;;10.60;2.72;;;23.00;82.30;;;;;;5070969;28;20032;-82
2022/08/28 01:58:37;;;;;;;7.18;2.50;;;23.00;82.60;;;;;;5070738;28;20390;-81
2022/08/28 02:01:03;;;;;;;5.50;2.55;;;22.90;82.50;;;;;;5068879;28;20611;-82
2022/08/28 02:03:29;;;;;;;6.30;2.40;;;23.00;82.10;;;;;;5070473;28;20111;-82
2022/08/28 02:05:54;;;;;;;7.85;2.00;;;23.00;81.80;;;;;;5069245;28;20508;-82
2022/08/28 02:08:20;;;;;;;8.63;2.80;;;23.00;81.60;;;;;;5068709;28;20033;-82
2022/08/28 02:10:46;;;;;;;6.43;2.70;;;23.10;81.70;;;;;;5068780;28;20032;-83
2022/08/28 02:13:12;;;;;;;8.48;2.55;;;23.00;82.80;;;;;;5069736;28;20033;-82
2022/08/28 02:15:39;;;;;;;6.82;3.00;;;23.00;82.30;;;;;;5069494;28;20020;-82
2022/08/28 02:18:05;;;;;;;14.10;3.28;;;22.90;83.00;;;;;;5070306;28;20085;-82
2022/08/28 02:20:32;;;;;;;12.10;2.33;;;22.80;84.00;;;;;;5069190;28;20036;-81
2022/08/28 02:22:59;;;;;;;6.65;2.30;;;22.80;83.20;;;;;;5068303;28;20024;-81
2022/08/28 02:25:26;;;;;;;7.90;2.28;;;22.80;83.80;;;;;;5069687;28;20352;-81
2022/08/28 02:27:52;;;;;;;7.18;2.35;;;22.70;84.40;;;;;;5069139;28;20020;-82
2022/08/28 02:30:18;;;;;;;8.48;2.67;;;22.60;85.00;;;;;;5068995;28;20035;-82
2022/08/28 02:32:45;;;;;;;10.00;2.78;;;22.50;86.30;;;;;;5070128;28;20052;-81
2022/08/28 02:35:13;;;;;;;21.45;3.80;;;22.50;86.70;;;;;;5068531;28;20032;-82
2022/08/28 02:37:43;;;;;;;7.68;2.63;;;22.40;87.30;;;;;;5070130;28;20033;-82
2022/08/28 02:40:10;;;;;;;9.48;2.85;;;22.30;87.50;;;;;;5068594;28;20085;-82
2022/08/28 02:42:36;;;;;;;6.80;2.92;;;22.30;87.80;;;;;;5070314;28;20032;-82
2022/08/28 02:45:01;;;;;;;7.63;2.63;;;22.20;88.30;;;;;;5068489;28;20037;-82
2022/08/28 02:47:27;;;;;;;13.48;2.67;;;22.10;89.30;;;;;;5071585;28;20029;-82
2022/08/28 02:49:53;;;;;;;6.72;2.50;;;22.00;89.90;;;;;;5067749;28;20043;-80
2022/08/28 02:52:20;;;;;;;6.55;2.60;;;22.00;90.20;;;;;;5068774;28;20226;-82
2022/08/28 02:54:46;;;;;;;11.65;2.63;;;22.00;90.40;;;;;;5068058;28;20603;-82
2022/08/28 02:57:13;;;;;;;11.30;2.97;;;21.90;90.90;;;;;;5066718;28;20051;-82
2022/08/28 02:59:38;;;;;;;9.18;2.60;;;21.80;91.30;;;;;;5068587;28;20036;-81
2022/08/28 03:02:06;;;;;;;9.73;3.03;;;21.70;91.50;;;;;;5068440;28;20477;-82
2022/08/28 03:04:36;;;;;;;7.30;2.17;;;21.70;91.30;;;;;;5067782;28;20136;-81
2022/08/28 03:07:03;;;;;;;8.85;2.45;;;21.60;91.10;;;;;;5067774;28;20025;-82
2022/08/28 03:09:29;;;;;;;8.48;2.92;;;21.70;91.00;;;;;;5069911;28;20046;-82
2022/08/28 03:11:55;;;;;;;9.35;2.65;;;21.60;91.40;;;;;;5067860;28;20057;-82
2022/08/28 03:14:21;;;;;;;12.95;3.00;;;21.60;91.70;;;;;;5068377;28;20032;-81
2022/08/28 03:16:47;;;;;;;6.28;3.40;;;21.60;91.80;;;;;;5068390;28;20027;-82
2022/08/28 03:19:14;;;;;;;10.98;3.03;;;21.60;92.20;;;;;;5067465;28;20850;-82
2022/08/28 03:21:39;;;;;;;10.98;2.58;;;21.60;92.10;;;;;;5068520;28;20430;-82
2022/08/28 03:24:05;;;;;;;4.93;2.17;;;21.50;92.50;;;;;;5068037;28;20119;-81
2022/08/28 03:26:32;;;;;;;13.43;2.90;;;21.50;92.30;;;;;;5067840;28;20035;-81
2022/08/28 03:28:58;;;;;;;15.13;2.55;;;21.50;92.40;;;;;;5067569;28;20040;-81
2022/08/28 03:31:28;;;;;;;13.63;2.90;;;21.60;92.00;;;;;;5067882;28;20031;-82
2022/08/28 03:33:54;;;;;;;10.45;2.95;;;21.70;92.20;;;;;;5067408;28;20076;-83
2022/08/28 03:36:26;;;;;;;10.10;2.58;;;21.70;92.30;;;;;;5068039;28;20038;-81
2022/08/28 03:38:54;;;;;;;9.43;2.78;;;21.70;92.10;;;;;;5067810;28;20040;-81
2022/08/28 03:41:22;;;;;;;14.48;2.97;;;21.80;92.10;;;;;;5068613;28;20082;-81
2022/08/28 03:43:48;;;;;;;10.50;3.10;;;21.70;92.50;;;;;;5067928;28;20082;-83
2022/08/28 03:46:16;;;;;;;13.10;2.47;;;21.70;92.20;;;;;;5067700;28;20480;-82
2022/08/28 03:48:43;;;;;;;13.73;2.65;;;21.80;92.60;;;;;;5067533;28;20066;-82
2022/08/28 03:51:17;;;;;;;9.00;2.75;;;21.80;92.10;;;;;;5068336;28;20043;-81
2022/08/28 03:53:43;;;;;;;10.55;2.70;;;21.90;91.90;;;;;;5066924;28;20031;-82
2022/08/28 03:56:10;;;;;;;5.63;2.35;;;21.90;91.80;;;;;;5067409;28;20033;-82
2022/08/28 03:58:37;;;;;;;10.07;2.63;;;21.90;92.00;;;;;;5068106;28;20033;-81
2022/08/28 04:01:03;;;;;;;15.98;2.80;;;22.00;92.20;;;;;;5066874;28;20033;-81
2022/08/28 04:03:29;;;;;;;9.82;2.10;;;21.90;92.40;;;;;;5067403;28;20029;-82
2022/08/28 04:05:54;;;;;;;7.57;2.40;;;22.00;92.60;;;;;;5067754;28;20027;-82
2022/08/28 04:08:21;;;;;;;6.55;2.85;;;22.00;92.70;;;;;;5068437;28;20070;-82
2022/08/28 04:10:48;;;;;;;10.20;2.40;;;21.90;92.80;;;;;;5066984;28;20024;-82
2022/08/28 04:13:15;;;;;;;5.95;2.63;;;22.00;92.90;;;;;;5067502;28;20028;-82
2022/08/28 04:15:41;;;;;;;12.50;2.65;;;22.00;93.10;;;;;;5066460;28;20135;-82
2022/08/28 04:18:08;;;;;;;7.35;2.60;;;22.00;93.10;;;;;;5067653;28;20499;-82
2022/08/28 04:20:34;;;;;;;8.35;3.50;;;22.10;93.00;;;;;;5066797;28;20029;-82
2022/08/28 04:23:02;;;;;;;7.07;2.67;;;22.10;93.20;;;;;;5066582;28;20090;-81
2022/08/28 04:25:28;;;;;;;16.40;3.20;;;22.20;93.10;;;;;;5067826;28;20024;-81
2022/08/28 04:27:53;;;;;;;11.35;2.10;;;22.20;93.60;;;;;;5067059;28;20040;-81
2022/08/28 04:30:19;;;;;;;10.70;3.35;;;22.30;93.50;;;;;;5066790;28;20025;-81
2022/08/28 04:32:45;;;;;;;11.57;2.80;;;22.40;93.50;;;;;;5067071;28;20079;-81
2022/08/28 04:35:12;;;;;;;6.25;2.65;;;22.50;93.60;;;;;;5066719;28;20032;-81
2022/08/28 04:37:39;;;;;;;11.38;2.75;;;22.80;91.90;;;;;;5066897;28;20031;-82
2022/08/28 04:40:09;;;;;;;6.50;1.85;;;23.10;91.40;;;;;;5067938;28;20378;-82
2022/08/28 04:42:36;;;;;;;6.68;2.38;;;23.40;91.00;;;;;;5066952;28;20052;-81
2022/08/28 04:45:02;;;;;;;8.57;3.05;;;23.50;90.60;;;;;;5066371;28;20039;-81
2022/08/28 04:47:28;;;;;;;6.70;2.67;;;23.80;90.40;;;;;;5066762;28;20424;-81
2022/08/28 04:49:54;;;;;;;6.40;1.75;;;23.90;89.50;;;;;;5067930;28;20040;-81
2022/08/28 04:52:21;;;;;;;10.05;2.20;;;24.10;89.30;;;;;;5066230;28;20029;-81
2022/08/28 04:54:47;;;;;;;11.93;2.88;;;24.20;89.40;;;;;;5067177;28;20028;-81
2022/08/28 04:57:12;;;;;;;5.80;2.33;;;24.30;89.10;;;;;;5066965;28;20033;-81
2022/08/28 04:59:39;;;;;;;8.30;2.05;;;24.40;87.90;;;;;;5067365;28;20033;-82
2022/08/28 05:02:05;;;;;;;10.65;2.85;;;24.50;87.90;;;;;;5066298;28;20123;-81
2022/08/28 05:04:30;;;;;;;8.02;2.20;;;24.50;87.90;;;;;;5066559;28;20454;-82
2022/08/28 05:06:56;;;;;;;9.77;2.60;;;24.60;86.90;;;;;;5067640;28;20074;-82
2022/08/28 05:09:22;;;;;;;5.50;2.53;;;24.70;86.50;;;;;;5067405;28;20029;-82
2022/08/28 05:11:48;;;;;;;11.75;1.95;;;24.90;85.70;;;;;;5068087;28;20477;-82
2022/08/28 05:14:15;;;;;;;6.45;2.85;;;25.20;84.60;;;;;;5068131;28;20033;-81
2022/08/28 05:16:47;;;;;;;9.85;2.13;;;25.50;83.80;;;;;;5066016;28;20031;-82
2022/08/28 05:19:14;;;;;;;10.65;2.45;;;25.60;83.10;;;;;;5066237;28;20040;-81
2022/08/28 05:21:40;;;;;;;15.38;2.40;;;25.70;82.70;;;;;;5066666;28;20036;-82
2022/08/28 05:24:06;;;;;;;5.68;1.90;;;25.70;82.70;;;;;;5066297;28;20029;-82
2022/08/28 05:26:33;;;;;;;4.85;1.98;;;25.70;82.90;;;;;;5067028;28;20055;-82
2022/08/28 05:28:58;;;;;;;7.25;2.00;;;25.80;82.90;;;;;;5067788;28;20044;-82
2022/08/28 05:31:25;;;;;;;6.85;2.10;;;25.80;82.30;;;;;;5066548;28;20028;-82
2022/08/28 05:33:52;;;;;;;10.38;2.00;;;26.00;82.00;;;;;;5065772;28;20564;-83
2022/08/28 05:36:20;;;;;;;10.18;2.40;;;25.90;81.80;;;;;;5066243;28;20107;-83
2022/08/28 05:38:49;;;;;;;7.03;1.73;;;25.80;81.50;;;;;;5066566;28;20024;-82
2022/08/28 05:41:22;;;;;;;11.70;2.25;;;25.70;81.10;;;;;;5066232;28;20036;-82
2022/08/28 05:43:48;;;;;;;9.90;2.53;;;25.50;81.70;;;;;;5067110;28;20025;-83
2022/08/28 05:46:15;;;;;;;12.82;2.70;;;25.40;80.80;;;;;;5065752;28;20032;-82
2022/08/28 05:48:41;;;;;;;8.52;2.22;;;25.30;81.20;;;;;;5067371;28;20020;-82
2022/08/28 05:51:10;;;;;;;9.55;2.42;;;25.40;81.30;;;;;;5084291;28;20364;-82
2022/08/28 05:53:40;;;;;;;17.67;2.75;;;25.80;80.20;;;;;;5087419;28;20378;-82
2022/08/28 05:56:10;;;;;;;8.52;1.92;;;26.30;78.70;;;;;;5086177;28;20062;-81
2022/08/28 05:58:38;;;;;;;6.18;1.63;;;26.80;77.10;;;;;;5071965;28;20086;-83
2022/08/28 06:01:09;;;;;;;9.35;2.22;;;27.10;77.00;;;;;;5065656;28;20451;-83
2022/08/28 06:03:36;;;;;;;6.55;1.90;;;27.40;75.50;;;;;;5065361;28;20055;-82
2022/08/28 06:06:02;;;;;;;8.07;1.83;;;28.10;72.40;;;;;;5065580;28;20028;-83
2022/08/28 06:08:30;;;;;;;5.95;1.58;;;28.50;72.00;;;;;;5064864;28;20052;-82
2022/08/28 06:10:56;;;;;;;7.95;1.83;;;28.80;70.20;;;;;;5065082;28;20033;-82
2022/08/28 06:13:22;;;;;;;6.82;1.40;;;29.10;69.60;;;;;;5065375;28;20027;-81
2022/08/28 06:15:48;;;;;;;4.85;1.52;;;29.50;69.10;;;;;;5064973;28;20031;-82
2022/08/28 06:18:14;;;;;;;6.50;2.20;;;30.00;67.40;;;;;;5064637;28;20107;-82
2022/08/28 06:20:43;;;;;;;5.93;1.42;;;30.30;66.00;;;;;;5066488;28;20563;-82
2022/08/28 06:23:11;;;;;;;6.47;1.98;;;30.60;66.00;;;;;;5064668;28;20142;-82
2022/08/28 06:25:44;;;;;;;6.00;2.20;;;31.10;65.50;;;;;;5065213;28;20028;-83
2022/08/28 06:28:10;;;;;;;13.60;1.80;;;31.90;61.70;;;;;;5065352;28;20530;-83
2022/08/28 06:30:37;;;;;;;4.43;1.67;;;32.20;59.50;;;;;;5064955;28;20025;-83
2022/08/28 06:33:04;;;;;;;5.32;1.75;;;32.30;58.70;;;;;;5064718;28;20055;-83
2022/08/28 06:35:30;;;;;;;6.85;1.85;;;32.50;57.80;;;;;;5064985;28;20025;-83
2022/08/28 06:37:57;;;;;;;5.95;1.88;;;32.70;56.00;;;;;;5065744;28;20086;-83
2022/08/28 06:40:23;;;;;;;3.90;1.20;;;32.40;55.60;;;;;;5070375;28;20043;-83
2022/08/28 06:42:48;;;;;;;7.18;1.50;;;32.40;55.90;;;;;;5070596;28;20091;-82
2022/08/28 06:45:14;;;;;;;5.32;1.48;;;32.60;54.10;;;;;;5068482;28;20382;-84
2022/08/28 06:47:40;;;;;;;8.23;1.73;;;32.70;54.70;;;;;;5069787;28;20111;-83
2022/08/28 06:50:06;;;;;;;10.45;1.90;;;32.70;54.30;;;;;;5068145;28;20082;-83
2022/08/28 06:52:32;;;;;;;7.10;1.50;;;33.00;53.50;;;;;;5069630;28;20043;-83
2022/08/28 06:54:57;;;;;;;6.70;1.38;;;33.30;52.80;;;;;;5068410;28;20028;-83
2022/08/28 06:57:24;;;;;;;5.50;1.75;;;33.60;52.80;;;;;;5067985;28;20443;-83
2022/08/28 06:59:59;;;;;;;7.35;2.83;;;34.10;51.30;;;;;;5069521;28;20040;-83
2022/08/28 07:02:25;;;;;;;6.57;1.90;;;34.20;52.20;;;;;;5068503;28;20449;-84
2022/08/28 07:04:52;;;;;;;5.13;1.55;;;34.20;50.80;;;;;;5069801;28;20083;-83
2022/08/28 07:07:18;;;;;;;4.85;1.60;;;34.50;50.60;;;;;;5067111;28;20056;-81
2022/08/28 07:09:45;;;;;;;8.77;1.80;;;34.70;51.00;;;;;;5069016;28;20508;-83
2022/08/28 07:12:14;;;;;;;15.50;2.17;;;35.00;51.10;;;;;;5067753;28;20501;-83
2022/08/28 07:14:39;;;;;;;7.95;1.85;;;35.10;51.90;;;;;;5068082;28;20560;-83
2022/08/28 07:17:06;;;;;;;6.72;1.70;;;35.10;50.40;;;;;;5068448;28;20104;-84
2022/08/28 07:19:32;;;;;;;7.88;2.13;;;35.70;48.20;;;;;;5068330;28;20040;-82
2022/08/28 07:21:58;;;;;;;11.90;2.28;;;35.70;48.00;;;;;;5068960;28;20021;-83
2022/08/28 07:24:24;;;;;;;6.18;2.30;;;35.50;48.70;;;;;;5068808;28;20037;-84
2022/08/28 07:26:51;;;;;;;7.72;2.30;;;35.90;49.60;;;;;;5068047;28;20119;-83
2022/08/28 07:29:17;;;;;;;7.40;2.60;;;36.20;48.80;;;;;;5066778;28;20060;-83
2022/08/28 07:31:46;;;;;;;9.30;2.35;;;36.50;48.80;;;;;;5067044;28;20081;-82
2022/08/28 07:34:14;;;;;;;13.73;2.47;;;36.90;48.70;;;;;;5068767;28;20060;-83
2022/08/28 07:36:41;;;;;;;4.82;2.20;;;37.30;48.00;;;;;;5067242;28;20147;-83
2022/08/28 07:39:08;;;;;;;10.88;2.58;;;37.60;46.60;;;;;;5067114;28;20450;-83
2022/08/28 07:41:37;;;;;;;13.93;2.25;;;37.40;46.80;;;;;;5067326;28;20025;-83
2022/08/28 07:46:51;;;;;;;;;;;37.50;46.20;;;;;;5068733;28;20036;-83
2022/08/28 07:49:18;;;;;;;14.20;2.53;;;37.70;45.40;;;;;;5066991;28;19973;-83
2022/08/28 07:51:44;;;;;;;6.40;2.35;;;37.70;45.50;;;;;;5066988;28;20438;-83
2022/08/28 07:54:09;;;;;;;10.00;2.40;;;37.80;44.60;;;;;;5066897;28;20059;-83
2022/08/28 07:56:39;;;;;;;13.40;2.28;;;38.00;45.00;;;;;;5067155;28;20029;-83
2022/08/28 07:59:06;;;;;;;6.32;2.72;;;38.10;43.70;;;;;;5066298;28;20040;-83
2022/08/28 08:01:40;;;;;;;4.40;2.00;;;38.40;44.00;;;;;;5067069;28;20095;-83
2022/08/28 08:04:08;;;;;;;10.60;1.90;;;38.70;42.80;;;;;;5068080;28;20437;-83
2022/08/28 08:06:36;;;;;;;6.50;2.20;;;38.80;41.80;;;;;;5068039;28;20470;-84
2022/08/28 08:09:04;;;;;;;10.68;2.67;;;38.70;41.80;;;;;;5065873;28;20085;-84
2022/08/28 08:11:30;;;;;;;11.45;2.67;;;38.70;42.40;;;;;;5066870;28;20036;-82
2022/08/28 08:13:56;;;;;;;11.80;2.22;;;38.60;42.90;;;;;;5067484;28;20153;-83
2022/08/28 08:16:24;;;;;;;8.18;2.90;;;38.70;40.40;;;;;;5066355;28;20093;-83
2022/08/28 08:18:51;;;;;;;6.30;1.85;;;38.20;40.70;;;;;;5065937;28;20115;-83
2022/08/28 08:21:20;;;;;;;15.18;1.88;;;38.00;40.70;;;;;;5065945;28;20036;-84
2022/08/28 08:23:46;;;;;;;8.40;1.88;;;38.40;40.90;;;;;;5066426;28;20021;-84
2022/08/28 08:26:16;;;;;;;6.05;2.15;;;38.90;41.50;;;;;;5067524;28;20469;-82
2022/08/28 08:28:43;;;;;;;18.45;2.50;;;39.40;40.30;;;;;;5065702;28;20036;-83
2022/08/28 08:31:15;;;;;;;8.25;2.55;;;39.50;40.60;;;;;;5067087;28;20033;-83
2022/08/28 08:33:44;;;;;;;12.90;2.33;;;40.00;39.60;;;;;;5067100;28;20056;-84
2022/08/28 08:36:11;;;;;;;3.97;1.80;;;40.40;38.00;;;;;;5066420;28;20029;-83
2022/08/28 08:38:37;;;;;;;9.23;2.50;;;40.50;37.70;;;;;;5065861;28;20120;-84
2022/08/28 08:41:12;;;;;;;5.13;1.85;;;40.80;37.70;;;;;;5066408;28;20508;-83
2022/08/28 08:44:06;;;;;;;8.98;1.92;;;41.00;37.80;;;;;;5065674;28;20035;-83
2022/08/28 08:46:52;;;;;;;8.48;1.85;;;40.70;38.50;;;;;;5067586;28;20028;-83
2022/08/28 08:49:21;;;;;;;7.25;2.20;;;40.30;37.20;;;;;;5066896;28;20082;-82
2022/08/28 08:52:11;;;;;;;9.68;2.38;;;40.10;37.90;;;;;;5066319;28;20035;-83
2022/08/28 08:54:53;;;;;;;8.80;3.00;;;39.90;36.60;;;;;;5067056;28;20086;-80
2022/08/28 08:57:20;;;;;;;8.98;2.55;;;39.50;37.10;;;;;;5075576;28;20020;-81
2022/08/28 08:59:46;;;;;;;11.27;2.53;;;39.40;38.20;;;;;;5074659;28;20394;-80
2022/08/28 09:02:23;;;;;;;7.60;2.38;;;39.50;38.30;;;;;;5069169;28;20047;-81
2022/08/28 09:05:05;;;;;;;7.53;1.88;;;39.80;38.50;;;;;;5067507;28;20152;-79
2022/08/28 09:08:04;;;;;;;12.23;2.47;;;39.80;40.00;;;;;;5066055;28;20028;-80
2022/08/28 09:10:40;;;;;;;7.10;2.33;;;39.60;38.70;;;;;;5064489;28;20123;-81
2022/08/28 09:13:38;;;;;;;4.60;1.40;;;39.40;39.50;;;;;;5065353;28;20090;-81
2022/08/28 09:16:16;;;;;;;9.18;1.80;;;39.30;39.60;;;;;;5042911;28;20309;-80
2022/08/28 09:18:42;;;;;;;7.75;2.20;;;39.20;38.70;;;;;;5065369;28;20045;-81
2022/08/28 09:21:08;;;;;;;6.38;2.25;;;39.30;38.80;;;;;;5066787;28;20039;-79
2022/08/28 09:23:33;;;;;;;6.57;2.10;;;39.30;39.40;;;;;;5065657;28;20036;-81
2022/08/28 09:26:10;;;;;;;5.97;1.95;;;39.30;39.30;;;;;;5065577;28;20536;-84
2022/08/28 09:28:39;;;;;;;7.43;1.98;;;39.70;39.00;;;;;;5066692;28;20060;-83
2022/08/28 09:31:30;;;;;;;7.70;2.40;;;39.70;37.70;;;;;;5064846;28;20028;-84
2022/08/28 09:34:23;;;;;;;7.25;1.92;;;39.90;37.40;;;;;;5066392;28;20045;-83
2022/08/28 09:36:50;;;;;;;11.98;2.10;;;39.90;37.20;;;;;;5065130;28;20171;-83
2022/08/28 09:39:19;;;;;;;8.80;2.17;;;40.00;37.80;;;;;;5064771;28;20043;-83
2022/08/28 09:44:52;;;;;;;5.78;2.50;;;40.30;36.40;;;;;;5066600;28;20040;-83
2022/08/28 09:47:37;;;;;;;7.70;1.92;;;40.10;37.50;;;;;;5065195;28;20028;-83
2022/08/28 09:50:24;;;;;;;10.50;2.40;;;40.50;37.90;;;;;;5065171;28;20059;-83
2022/08/28 09:52:51;;;;;;;10.88;2.83;;;40.60;37.60;;;;;;5066530;28;20032;-84
2022/08/28 09:55:26;;;;;;;9.75;2.45;;;40.60;36.70;;;;;;5066230;28;20020;-82
2022/08/28 09:57:53;;;;;;;11.43;2.80;;;40.60;36.90;;;;;;5064838;28;20025;-82
2022/08/28 10:00:19;;;;;;;11.32;2.95;;;40.50;36.90;;;;;;5065646;28;20114;-84
2022/08/28 10:03:04;;;;;;;8.30;2.28;;;40.70;36.30;;;;;;5065131;28;20496;-83
2022/08/28 10:05:59;;;;;;;6.60;2.88;;;40.50;36.10;;;;;;5065130;28;20073;-83
2022/08/28 10:08:53;;;;;;;8.32;2.80;;;40.40;37.10;;;;;;5064099;28;20036;-83
2022/08/28 10:11:32;;;;;;;12.00;2.97;;;40.40;36.90;;;;;;5065343;28;20036;-82
2022/08/28 10:14:09;;;;;;;11.90;2.25;;;40.50;36.80;;;;;;5067290;28;20035;-82
2022/08/28 10:16:45;;;;;;;8.27;2.45;;;40.50;36.30;;;;;;5070548;28;20047;-83
2022/08/28 10:19:47;;;;;;;6.43;2.15;;;40.40;37.00;;;;;;5069301;28;20044;-82
2022/08/28 10:22:47;;;;;;;9.45;3.00;;;40.20;37.40;;;;;;5068298;28;20098;-83
2022/08/28 10:25:33;;;;;;;8.65;2.50;;;39.50;37.30;;;;;;5068464;28;20528;-82
2022/08/28 10:28:11;;;;;;;10.40;2.63;;;38.80;37.50;;;;;;5068995;28;20033;-82
2022/08/28 10:31:01;;;;;;;11.30;2.45;;;38.30;38.40;;;;;;5068865;28;20082;-82
2022/08/28 10:34:05;;;;;;;9.48;2.50;;;37.80;38.90;;;;;;5068987;28;20424;-82
2022/08/28 10:36:34;;;;;;;6.05;2.33;;;37.50;39.20;;;;;;5069537;28;20036;-82
2022/08/28 10:39:08;;;;;;;7.55;2.63;;;37.20;39.90;;;;;;5068222;28;20059;-82
2022/08/28 10:41:42;;;;;;;10.07;2.75;;;36.90;39.80;;;;;;5068480;28;20115;-81
2022/08/28 10:44:14;;;;;;;5.67;2.13;;;36.60;40.30;;;;;;5068795;28;20078;-82
2022/08/28 10:46:47;;;;;;;7.80;2.25;;;36.40;41.40;;;;;;5069952;28;20025;-82
2022/08/28 10:49:30;;;;;;;9.68;3.00;;;36.20;42.00;;;;;;5068987;28;20560;-83
2022/08/28 10:52:08;;;;;;;13.32;2.28;;;36.10;42.00;;;;;;5068884;28;20017;-82
2022/08/28 10:54:49;;;;;;;10.10;2.85;;;35.70;42.50;;;;;;5069285;28;20032;-82
2022/08/28 10:57:39;;;;;;;10.55;2.50;;;35.60;42.70;;;;;;5069172;28;20349;-82
2022/08/28 11:00:20;;;;;;;17.00;2.80;;;35.30;43.10;;;;;;5070372;28;20036;-82
2022/08/28 11:02:56;;;;;;;11.48;2.63;;;35.20;43.00;;;;;;5067512;28;20017;-82
2022/08/28 11:05:25;;;;;;;10.70;2.63;;;35.00;41.90;;;;;;5069141;28;20056;-82
2022/08/28 11:07:59;;;;;;;6.75;2.30;;;34.80;42.40;;;;;;5070404;28;20056;-82
2022/08/28 11:10:31;;;;;;;7.10;2.20;;;34.70;43.60;;;;;;5065319;28;20083;-81
2022/08/28 11:12:58;;;;;;;7.38;2.00;;;34.60;43.60;;;;;;5069396;28;20037;-82
2022/08/28 11:15:27;;;;;;;6.97;1.90;;;34.40;43.50;;;;;;5069043;28;20025;-82
2022/08/28 11:18:22;;;;;;;7.18;2.03;;;34.30;43.70;;;;;;5068263;28;20115;-81
2022/08/28 11:21:09;;;;;;;10.25;2.63;;;34.20;43.90;;;;;;5067977;28;20040;-82
2022/08/28 11:23:46;;;;;;;8.75;3.22;;;34.10;45.20;;;;;;5067893;28;20028;-82
2022/08/28 11:26:22;;;;;;;9.57;2.63;;;34.20;44.10;;;;;;5068579;28;20380;-82
2022/08/28 11:28:47;;;;;;;;;;;34.20;44.80;;;;;;5068494;28;20032;-81
2022/08/28 11:31:13;;;;;;;;;;;34.20;45.30;;;;;;5069944;28;19915;-81
2022/08/28 11:33:42;;;;;;;5.37;2.27;;;34.20;44.40;;;;;;5069207;28;19924;-82
2022/08/28 11:36:19;;;;;;;14.30;2.40;;;34.30;45.20;;;;;;5068471;28;20029;-82
2022/08/28 11:38:45;;;;;;;8.55;3.08;;;34.30;45.00;;;;;;5084098;28;20392;-81
2022/08/28 11:41:21;;;;;;;7.18;2.20;;;34.30;45.00;;;;;;5083002;28;20024;-81
2022/08/28 11:44:11;;;;;;;12.68;2.67;;;34.40;45.20;;;;;;5067860;28;20025;-83
2022/08/28 11:46:43;;;;;;;7.60;2.55;;;34.50;45.10;;;;;;5045380;28;20041;-83
2022/08/28 11:49:28;;;;;;;10.00;2.47;;;34.50;44.90;;;;;;5048199;28;20056;-82
2022/08/28 11:52:34;;;;;;;6.50;2.40;;;34.60;45.20;;;;;;5047680;28;20036;-82
2022/08/28 11:55:06;;;;;;;9.95;2.55;;;34.60;45.40;;;;;;4984568;28;20560;-81
2022/08/28 11:57:53;;;;;;;8.00;2.00;;;34.60;45.40;;;;;;5054645;28;20048;-83
2022/08/28 12:00:25;;;;;;;7.70;2.80;;;34.70;46.20;;;;;;5068857;28;20127;-82
2022/08/28 12:03:12;;;;;;;11.68;2.08;;;34.80;46.20;;;;;;5068977;28;20031;-82
2022/08/28 12:05:42;;;;;;;12.40;2.67;;;34.80;45.60;;;;;;5067850;28;20028;-83
2022/08/28 12:08:09;;;;;;;8.82;2.30;;;34.80;45.70;;;;;;5068376;28;20028;-82
2022/08/28 12:10:34;;;;;;;9.73;2.38;;;34.80;46.00;;;;;;5068403;28;20025;-81
2022/08/28 12:13:02;;;;;;;9.18;2.20;;;34.80;46.20;;;;;;5067175;28;20028;-84
2022/08/28 12:15:32;;;;;;;9.02;2.30;;;34.80;46.20;;;;;;5069289;28;20043;-83
2022/08/28 12:17:57;;;;;;;6.88;2.72;;;34.70;46.70;;;;;;5067707;28;20036;-82
2022/08/28 12:20:38;;;;;;;11.45;2.15;;;34.70;46.40;;;;;;5067001;28;20044;-82
2022/08/28 12:23:30;;;;;;;6.10;1.95;;;34.60;45.80;;;;;;5066905;28;20047;-83
2022/08/28 12:26:22;;;;;;;7.40;2.33;;;34.70;46.30;;;;;;5067624;28;20086;-83
2022/08/28 12:29:02;;;;;;;12.55;2.30;;;34.60;46.20;;;;;;5067648;28;20035;-82
2022/08/28 12:35:02;;;;;;;12.27;2.10;;;34.50;46.50;;;;;;5068629;28;20087;-82
2022/08/28 12:37:41;;;;;;;8.65;2.70;;;34.50;46.70;;;;;;5048443;28;20585;-82
2022/08/28 12:40:11;;;;;;;10.20;2.28;;;34.40;46.10;;;;;;5068124;28;20036;-83
2022/08/28 12:42:43;;;;;;;10.20;2.65;;;34.40;46.60;;;;;;5067730;28;20024;-83
2022/08/28 12:45:14;;;;;;;8.35;2.95;;;34.40;47.20;;;;;;5067313;28;20025;-83
2022/08/28 12:47:43;;;;;;;7.68;3.08;;;34.40;47.30;;;;;;5067385;28;20024;-83
2022/08/28 12:50:27;;;;;;;6.82;2.53;;;34.40;48.10;;;;;;5068700;28;20055;-82
2022/08/28 12:52:56;;;;;;;8.23;2.50;;;34.40;47.00;;;;;;5068422;28;20064;-83
2022/08/28 12:55:23;;;;;;;14.02;3.13;;;34.40;47.00;;;;;;5087958;28;20056;-83
2022/08/28 12:57:49;;;;;;;9.82;2.92;;;34.40;46.60;;;;;;5087321;28;20507;-83
2022/08/28 13:00:18;;;;;;;9.70;2.72;;;34.40;45.90;;;;;;5088273;28;20063;-83
2022/08/28 13:02:44;;;;;;;11.75;2.63;;;34.40;45.90;;;;;;5071374;28;20075;-82
2022/08/28 13:05:28;;;;;;;6.20;2.53;;;34.30;46.30;;;;;;5067038;28;20020;-83
2022/08/28 13:07:55;;;;;;;12.88;2.90;;;34.40;46.70;;;;;;5052500;28;20029;-83
2022/08/28 13:10:21;;;;;;;10.65;2.85;;;34.50;46.70;;;;;;5067880;28;20032;-83
2022/08/28 13:12:54;;;;;;;5.90;2.28;;;34.50;46.80;;;;;;5067107;28;20038;-83
2022/08/28 13:15:42;;;;;;;12.45;2.97;;;34.50;46.40;;;;;;5067741;28;20112;-83